Time;durP1;ratioP1;P1;durP2;ratioP2;P2;SDS_P1;SDS_P2;PMS_P1;PMS_P2;Temp;Humidity;BMP_temperature;BMP_pressure;BME280_temperature;BME280_humidity;BME280_pressure;Samples;Min_cycle;Max_cycle;Signal;HPM_P1;HPM_P2
2023/02/02 00:01:24;;;;;;;;;;;4.80;99.90;;;;;;5017714;28;19963;-77
2023/02/02 00:03:50;;;;;;;;;;;4.80;99.90;;;;;;5012468;28;20012;-78
2023/02/02 00:06:16;;;;;;;;;;;4.70;99.90;;;;;;5015694;28;19993;-78
2023/02/02 00:08:41;;;;;;;;;;;4.70;99.90;;;;;;5016024;28;20409;-78
2023/02/02 00:11:07;;;;;;;;;;;4.70;99.90;;;;;;5009743;28;19913;-78
2023/02/02 00:13:33;;;;;;;;;;;4.70;99.90;;;;;;5010761;28;19913;-78
2023/02/02 00:15:58;;;;;;;;;;;4.60;99.90;;;;;;5014577;28;19920;-78
2023/02/02 00:18:24;;;;;;;;;;;4.50;99.90;;;;;;5013662;28;20022;-79
2023/02/02 00:20:50;;;;;;;;;;;4.60;99.90;;;;;;5016663;28;20319;-78
2023/02/02 00:23:16;;;;;;;;;;;4.70;99.40;;;;;;5020028;28;19950;-79
2023/02/02 00:25:42;;;;;;;;;;;4.70;98.30;;;;;;5019077;28;19913;-78
2023/02/02 00:28:07;;;;;;;;;;;4.70;97.90;;;;;;5011239;28;19920;-77
2023/02/02 00:30:33;;;;;;;;;;;4.80;97.40;;;;;;5014203;28;19913;-76
2023/02/02 00:32:58;;;;;;;;;;;4.90;96.90;;;;;;5020648;28;20447;-79
2023/02/02 00:35:24;;;;;;;;;;;4.90;96.90;;;;;;5009271;28;19919;-78
2023/02/02 00:37:50;;;;;;;;;;;4.90;96.50;;;;;;5012933;28;19913;-78
2023/02/02 00:40:15;;;;;;;;;;;4.90;96.60;;;;;;5014199;28;19919;-79
2023/02/02 00:42:42;;;;;;;;;;;4.80;96.60;;;;;;5011167;28;19917;-78
2023/02/02 00:45:17;;;;;;;;;;;4.80;96.90;;;;;;5017197;28;19917;-78
2023/02/02 00:47:44;;;;;;;;;;;4.70;97.30;;;;;;5011369;28;19913;-78
2023/02/02 00:50:10;;;;;;;;;;;4.70;97.40;;;;;;5007127;28;20000;-81
2023/02/02 00:52:36;;;;;;;;;;;4.60;97.40;;;;;;5009602;28;20032;-79
2023/02/02 00:55:01;;;;;;;;;;;4.50;97.60;;;;;;5005524;28;19910;-78
2023/02/02 00:57:27;;;;;;;;;;;4.50;97.40;;;;;;5012580;28;20020;-79
2023/02/02 00:59:53;;;;;;;;;;;4.40;97.40;;;;;;5012128;28;20067;-78
2023/02/02 01:02:18;;;;;;;;;;;4.50;97.20;;;;;;5010183;28;20034;-78
2023/02/02 01:04:44;;;;;;;;;;;4.60;96.90;;;;;;5011039;28;19913;-79
2023/02/02 01:07:09;;;;;;;;;;;4.60;96.90;;;;;;5006945;28;19916;-78
2023/02/02 01:09:35;;;;;;;;;;;4.50;97.20;;;;;;5014374;28;19909;-77
2023/02/02 01:12:00;;;;;;;;;;;4.50;97.30;;;;;;5016559;28;19909;-79
2023/02/02 01:14:26;;;;;;;;;;;4.60;97.10;;;;;;5011756;28;19968;-80
2023/02/02 01:16:51;;;;;;;;;;;4.60;97.00;;;;;;5003824;28;20468;-78
2023/02/02 01:19:17;;;;;;;;;;;4.60;96.90;;;;;;5004766;28;20595;-78
2023/02/02 01:21:42;;;;;;;;;;;4.60;97.20;;;;;;5009668;28;20044;-78
2023/02/02 01:24:08;;;;;;;;;;;4.60;97.20;;;;;;5013915;28;20020;-79
2023/02/02 01:26:34;;;;;;;;;;;4.60;97.40;;;;;;5013549;28;20372;-81
2023/02/02 01:28:59;;;;;;;;;;;4.60;97.50;;;;;;4995392;28;19963;-79
2023/02/02 01:31:25;;;;;;;;;;;4.70;97.60;;;;;;5016686;28;20003;-79
2023/02/02 01:33:51;;;;;;;;;;;4.70;97.40;;;;;;4996764;28;19967;-79
2023/02/02 01:36:20;;;;;;;;;;;4.80;97.50;;;;;;5014966;28;19989;-79
2023/02/02 01:38:46;;;;;;;;;;;4.90;97.50;;;;;;5016349;28;20149;-79
2023/02/02 01:41:13;;;;;;;;;;;4.90;97.60;;;;;;5014908;28;20022;-79
2023/02/02 01:43:44;;;;;;;;;;;4.90;97.70;;;;;;5017467;28;19943;-79
2023/02/02 01:46:17;;;;;;;;;;;5.00;97.60;;;;;;5006614;28;19963;-79
2023/02/02 01:48:45;;;;;;;;;;;5.00;97.70;;;;;;5012828;28;19913;-78
2023/02/02 01:51:14;;;;;;;;;;;5.00;97.60;;;;;;5015828;28;19917;-78
2023/02/02 01:53:41;;;;;;;;;;;5.00;97.80;;;;;;5006003;28;19957;-78
2023/02/02 01:56:07;;;;;;;;;;;5.10;97.80;;;;;;5006645;28;20278;-77
2023/02/02 01:58:35;;;;;;;;;;;5.10;97.80;;;;;;5015915;28;19923;-77
2023/02/02 02:01:01;;;;;;;;;;;5.10;97.80;;;;;;5017691;28;19981;-78
2023/02/02 02:03:28;;;;;;;;;;;5.10;98.00;;;;;;5010925;28;19916;-78
2023/02/02 02:05:58;;;;;;;;;;;5.10;98.10;;;;;;5016365;28;19923;-77
2023/02/02 02:08:28;;;;;;;;;;;5.10;98.40;;;;;;5020199;28;19939;-77
2023/02/02 02:10:54;;;;;;;;;;;5.00;98.30;;;;;;5016898;28;19913;-77
2023/02/02 02:13:20;;;;;;;;;;;5.00;98.60;;;;;;5008802;28;19923;-79
2023/02/02 02:18:50;;;;;;;;;;;5.10;98.60;;;;;;5015425;28;19951;-78
2023/02/02 02:27:07;;;;;;;;;;;5.00;98.90;;;;;;5014785;28;19920;-77
2023/02/02 02:29:51;;;;;;;;;;;5.00;99.10;;;;;;5013014;28;19956;-76
2023/02/02 02:32:35;;;;;;;;;;;4.90;99.50;;;;;;5016620;28;19947;-77
2023/02/02 02:35:19;;;;;;;;;;;5.00;99.80;;;;;;5022820;28;19939;-77
2023/02/02 02:37:50;;;;;;;;;;;4.90;99.90;;;;;;5010545;28;19913;-78
2023/02/02 02:40:24;;;;;;;;;;;4.90;99.10;;;;;;5014955;28;20970;-76
2023/02/02 02:42:53;;;;;;;;;;;5.00;99.60;;;;;;5018224;28;19921;-79
2023/02/02 02:45:20;;;;;;;;;;;5.00;99.90;;;;;;5020174;28;19917;-78
2023/02/02 02:47:46;;;;;;;;;;;5.00;99.90;;;;;;5008039;28;19949;-77
2023/02/02 02:50:12;;;;;;;;;;;5.10;99.90;;;;;;5023722;28;19935;-77
2023/02/02 02:52:39;;;;;;;;;;;5.00;99.90;;;;;;5025451;28;20435;-78
2023/02/02 02:55:05;;;;;;;;;;;5.00;99.90;;;;;;5021014;28;19916;-77
2023/02/02 02:57:37;;;;;;;;;;;5.00;99.90;;;;;;5019777;28;19910;-76
2023/02/02 03:00:03;;;;;;;;;;;4.90;99.90;;;;;;5012838;28;20285;-79
2023/02/02 03:02:32;;;;;;;;;;;5.00;99.90;;;;;;5021308;28;19920;-77
2023/02/02 03:05:03;;;;;;;;;;;5.00;99.90;;;;;;5023633;28;19912;-78
2023/02/02 03:07:36;;;;;;;;;;;5.00;99.90;;;;;;5020564;28;19916;-77
2023/02/02 03:10:04;;;;;;;;;;;5.00;99.90;;;;;;5022462;28;19905;-78
2023/02/02 03:12:29;;;;;;;;;;;4.90;99.90;;;;;;5009037;28;19909;-78
2023/02/02 03:14:55;;;;;;;;;;;4.80;99.90;;;;;;5009031;28;20452;-78
2023/02/02 03:17:20;;;;;;;;;;;4.80;99.90;;;;;;5019124;28;19949;-77
2023/02/02 03:19:46;;;;;;;;;;;4.80;99.90;;;;;;5021930;28;20669;-79
2023/02/02 03:22:12;;;;;;;;;;;4.80;99.90;;;;;;5016334;28;19987;-77
2023/02/02 03:24:37;;;;;;;;;;;4.80;99.90;;;;;;5014634;28;20316;-79
2023/02/02 03:27:03;;;;;;;;;;;4.90;99.90;;;;;;5022558;28;20474;-77
2023/02/02 03:29:28;;;;;;;;;;;4.90;99.90;;;;;;5022693;28;19913;-77
2023/02/02 03:31:54;;;;;;;;;;;4.90;99.90;;;;;;5022475;28;19913;-77
2023/02/02 03:34:20;;;;;;;;;;;4.90;99.90;;;;;;5019596;28;20384;-78
2023/02/02 03:36:45;;;;;;;;;;;4.90;99.90;;;;;;5023098;28;19913;-77
2023/02/02 03:39:11;;;;;;;;;;;4.90;99.70;;;;;;5023293;28;19936;-78
2023/02/02 03:41:37;;;;;;;;;;;4.90;99.60;;;;;;5012350;28;19955;-78
2023/02/02 03:44:02;;;;;;;;;;;4.90;99.90;;;;;;5023842;28;19995;-78
2023/02/02 03:46:28;;;;;;;;;;;4.90;99.90;;;;;;5016670;28;19949;-78
2023/02/02 03:48:54;;;;;;;;;;;4.90;99.90;;;;;;5013035;28;19916;-77
2023/02/02 03:51:19;;;;;;;;;;;4.90;99.70;;;;;;5014391;28;20011;-79
2023/02/02 03:53:47;;;;;;;;;;;4.90;99.90;;;;;;5009608;28;19920;-80
2023/02/02 03:56:13;;;;;;;;;;;4.90;99.90;;;;;;4995650;28;19913;-78
2023/02/02 03:58:38;;;;;;;;;;;4.80;99.90;;;;;;5015398;28;19928;-78
2023/02/02 04:01:05;;;;;;;;;;;4.80;99.90;;;;;;5010274;28;19981;-79
2023/02/02 04:03:31;;;;;;;;;;;4.90;99.90;;;;;;5013377;28;20393;-78
2023/02/02 04:05:57;;;;;;;;;;;5.00;99.90;;;;;;5008966;28;19971;-77
2023/02/02 04:08:22;;;;;;;;;;;4.90;99.90;;;;;;5021148;28;19913;-78
2023/02/02 04:10:48;;;;;;;;;;;4.90;99.90;;;;;;5010799;28;19913;-77
2023/02/02 04:13:13;;;;;;;;;;;4.90;99.90;;;;;;5023832;28;19909;-77
2023/02/02 04:15:39;;;;;;;;;;;4.90;99.90;;;;;;5018529;28;19913;-78
2023/02/02 04:18:04;;;;;;;;;;;4.80;99.90;;;;;;5013863;28;19920;-78
2023/02/02 04:20:30;;;;;;;;;;;4.80;99.90;;;;;;5013075;28;19948;-80
2023/02/02 04:22:56;;;;;;;;;;;4.90;99.90;;;;;;5010897;28;20028;-80
2023/02/02 04:25:21;;;;;;;;;;;4.90;99.90;;;;;;5014507;28;19913;-81
2023/02/02 04:27:47;;;;;;;;;;;4.90;99.90;;;;;;5014084;28;19913;-78
2023/02/02 04:30:12;;;;;;;;;;;4.90;99.90;;;;;;5010847;28;20495;-80
2023/02/02 04:32:38;;;;;;;;;;;4.90;99.90;;;;;;5022500;28;20559;-80
2023/02/02 04:35:04;;;;;;;;;;;4.90;99.90;;;;;;5014683;28;19913;-79
2023/02/02 04:37:30;;;;;;;;;;;4.90;99.90;;;;;;5006238;28;19909;-78
2023/02/02 04:39:56;;;;;;;;;;;4.80;99.90;;;;;;5017099;28;19967;-79
2023/02/02 04:42:21;;;;;;;;;;;4.70;99.90;;;;;;5022720;28;19920;-76
2023/02/02 04:44:47;;;;;;;;;;;4.80;99.90;;;;;;5015588;28;20003;-77
2023/02/02 04:47:12;;;;;;;;;;;5.00;99.90;;;;;;5014681;28;20304;-76
2023/02/02 04:49:38;;;;;;;;;;;5.00;99.80;;;;;;5014288;28;19956;-77
2023/02/02 04:52:04;;;;;;;;;;;5.00;99.70;;;;;;5017918;28;19921;-78
2023/02/02 04:54:29;;;;;;;;;;;4.90;99.90;;;;;;5016302;28;19910;-79
2023/02/02 04:56:55;;;;;;;;;;;4.90;99.90;;;;;;5016743;28;19961;-77
2023/02/02 04:59:21;;;;;;;;;;;4.90;99.90;;;;;;5021346;28;19954;-77
2023/02/02 05:01:47;;;;;;;;;;;5.00;99.90;;;;;;5005170;28;19913;-77
2023/02/02 05:04:12;;;;;;;;;;;5.00;99.90;;;;;;5003632;28;20482;-77
2023/02/02 05:06:38;;;;;;;;;;;5.00;99.90;;;;;;5017459;28;20004;-76
2023/02/02 05:09:03;;;;;;;;;;;4.60;99.90;;;;;;5022393;28;19909;-77
2023/02/02 05:11:29;;;;;;;;;;;4.60;99.90;;;;;;5022414;28;19988;-76
2023/02/02 05:13:55;;;;;;;;;;;4.90;99.90;;;;;;5016760;28;19913;-77
2023/02/02 05:16:22;;;;;;;;;;;5.00;99.50;;;;;;5012085;28;19912;-76
2023/02/02 05:18:51;;;;;;;;;;;5.00;99.50;;;;;;5016017;28;20012;-76
2023/02/02 05:21:17;;;;;;;;;;;5.00;99.60;;;;;;5020096;28;20693;-76
2023/02/02 05:23:43;;;;;;;;;;;5.00;99.70;;;;;;5019648;28;19921;-75
2023/02/02 05:26:13;;;;;;;;;;;5.00;99.90;;;;;;4990280;28;19913;-76
2023/02/02 05:28:40;;;;;;;;;;;5.00;99.10;;;;;;5007502;28;19909;-76
2023/02/02 05:31:06;;;;;;;;;;;5.00;99.20;;;;;;5016425;28;19971;-78
2023/02/02 05:33:32;;;;;;;;;;;5.10;99.20;;;;;;5021186;28;20323;-77
2023/02/02 05:35:57;;;;;;;;;;;5.10;98.80;;;;;;5020893;28;19932;-76
2023/02/02 05:38:23;;;;;;;;;;;5.10;98.40;;;;;;5020848;28;19939;-77
2023/02/02 05:40:48;;;;;;;;;;;5.10;98.90;;;;;;5017886;28;19947;-78
2023/02/02 05:43:14;;;;;;;;;;;5.10;98.70;;;;;;5013502;28;20347;-78
2023/02/02 05:45:39;;;;;;;;;;;5.10;98.30;;;;;;5019687;28;19913;-78
2023/02/02 05:48:05;;;;;;;;;;;5.10;97.80;;;;;;5015732;28;20313;-78
2023/02/02 05:50:30;;;;;;;;;;;5.10;97.90;;;;;;5016725;28;19917;-79
2023/02/02 05:52:57;;;;;;;;;;;5.10;97.80;;;;;;5014880;28;20688;-80
2023/02/02 05:55:22;;;;;;;;;;;5.10;97.50;;;;;;5013739;28;19917;-80
2023/02/02 05:57:48;;;;;;;;;;;5.00;97.50;;;;;;4993088;28;20387;-78
2023/02/02 06:00:13;;;;;;;;;;;5.10;97.60;;;;;;5012411;28;19921;-77
2023/02/02 06:02:39;;;;;;;;;;;5.10;97.30;;;;;;5017556;28;19924;-77
2023/02/02 06:05:05;;;;;;;;;;;5.10;96.60;;;;;;5015586;28;19912;-77
2023/02/02 06:07:30;;;;;;;;;;;5.00;97.00;;;;;;5015631;28;19913;-77
2023/02/02 06:09:57;;;;;;;;;;;5.00;97.10;;;;;;5011802;28;20396;-78
2023/02/02 06:12:22;;;;;;;;;;;5.10;97.00;;;;;;5015383;28;19913;-78
2023/02/02 06:14:48;;;;;;;;;;;5.00;96.60;;;;;;5013716;28;20541;-79
2023/02/02 06:17:13;;;;;;;;;;;5.00;96.80;;;;;;5009567;28;19909;-77
2023/02/02 06:19:39;;;;;;;;;;;5.10;96.50;;;;;;5003005;28;19918;-78
2023/02/02 06:22:05;;;;;;;;;;;5.10;96.60;;;;;;5007511;28;20023;-77
2023/02/02 06:24:31;;;;;;;;;;;5.10;96.70;;;;;;5007806;28;20351;-79
2023/02/02 06:26:56;;;;;;;;;;;5.10;96.40;;;;;;5008693;28;20483;-78
2023/02/02 06:29:22;;;;;;;;;;;5.10;96.60;;;;;;5005615;28;19913;-78
2023/02/02 06:31:48;;;;;;;;;;;5.10;96.60;;;;;;5006987;28;19915;-79
2023/02/02 06:34:13;;;;;;;;;;;5.10;96.40;;;;;;5004042;28;19914;-77
2023/02/02 06:36:39;;;;;;;;;;;5.10;96.40;;;;;;5013106;28;19914;-80
2023/02/02 06:39:06;;;;;;;;;;;5.20;95.70;;;;;;5014350;28;19920;-81
2023/02/02 06:41:32;;;;;;;;;;;5.30;95.80;;;;;;5014022;28;20247;-82
2023/02/02 06:43:58;;;;;;;;;;;5.20;95.90;;;;;;5020671;28;19990;-84
2023/02/02 06:46:23;;;;;;;;;;;5.20;95.60;;;;;;5021853;28;19920;-85
2023/02/02 06:48:49;;;;;;;;;;;5.20;95.70;;;;;;5016125;28;19913;-81
2023/02/02 06:51:15;;;;;;;;;;;5.20;96.00;;;;;;5012670;28;20004;-82
2023/02/02 06:53:40;;;;;;;;;;;5.10;95.70;;;;;;5018563;28;19940;-79
2023/02/02 06:56:06;;;;;;;;;;;5.20;95.90;;;;;;5014831;28;19939;-79
2023/02/02 06:58:32;;;;;;;;;;;5.20;96.30;;;;;;5009233;28;19916;-79
2023/02/02 07:01:04;;;;;;;;;;;5.20;96.90;;;;;;5011134;28;19928;-79
2023/02/02 07:03:30;;;;;;;;;;;5.20;96.90;;;;;;5015471;28;19928;-79
2023/02/02 07:05:56;;;;;;;;;;;5.20;96.70;;;;;;5002638;28;19917;-80
2023/02/02 07:08:21;;;;;;;;;;;5.20;96.80;;;;;;5018259;28;19905;-80
2023/02/02 07:10:47;;;;;;;;;;;5.20;96.60;;;;;;4997083;28;19909;-80
2023/02/02 07:13:13;;;;;;;;;;;5.20;96.80;;;;;;5012839;28;19920;-79
2023/02/02 07:15:39;;;;;;;;;;;5.20;97.00;;;;;;5020605;28;19980;-80
2023/02/02 07:18:05;;;;;;;;;;;5.20;97.20;;;;;;5006725;28;20411;-80
2023/02/02 07:20:30;;;;;;;;;;;5.20;97.10;;;;;;5018359;28;19913;-79
2023/02/02 07:22:56;;;;;;;;;;;5.30;96.60;;;;;;5019256;28;19921;-78
2023/02/02 07:25:21;;;;;;;;;;;5.20;96.80;;;;;;5006498;28;20481;-78
2023/02/02 07:27:51;;;;;;;;;;;5.20;96.80;;;;;;5006070;28;19909;-78
2023/02/02 07:30:16;;;;;;;;;;;5.30;96.70;;;;;;5024871;28;19912;-78
2023/02/02 07:32:48;;;;;;;;;;;5.30;95.90;;;;;;5024038;28;20407;-78
2023/02/02 07:35:15;;;;;;;;;;;5.30;96.40;;;;;;5006865;28;19916;-78
2023/02/02 07:37:40;;;;;;;;;;;5.30;96.90;;;;;;5005803;28;19963;-78
2023/02/02 07:40:06;;;;;;;;;;;5.40;96.40;;;;;;5007314;28;20297;-78
2023/02/02 07:42:32;;;;;;;;;;;5.40;96.20;;;;;;5007280;28;19919;-78
2023/02/02 07:44:59;;;;;;;;;;;5.50;95.70;;;;;;5022139;28;19909;-78
2023/02/02 07:47:24;;;;;;;;;;;5.50;95.40;;;;;;5023007;28;19909;-78
2023/02/02 07:49:50;;;;;;;;;;;5.60;95.70;;;;;;5019131;28;19909;-78
2023/02/02 07:52:15;;;;;;;;;;;5.60;95.90;;;;;;5016576;28;19909;-78
2023/02/02 07:54:41;;;;;;;;;;;5.70;95.50;;;;;;5010445;28;19909;-78
2023/02/02 07:57:06;;;;;;;;;;;5.70;95.50;;;;;;5012204;28;19932;-78
2023/02/02 07:59:32;;;;;;;;;;;5.70;95.70;;;;;;5011498;28;20324;-78
2023/02/02 08:01:58;;;;;;;;;;;5.70;95.70;;;;;;5009731;28;19909;-78
2023/02/02 08:04:23;;;;;;;;;;;5.70;95.60;;;;;;5011464;28;19924;-78
2023/02/02 08:06:49;;;;;;;;;;;5.90;95.70;;;;;;5005904;28;20400;-78
2023/02/02 08:09:14;;;;;;;;;;;5.90;95.40;;;;;;5015007;28;19913;-78
2023/02/02 08:11:40;;;;;;;;;;;6.00;94.60;;;;;;5017610;28;19916;-78
2023/02/02 08:14:06;;;;;;;;;;;6.00;95.20;;;;;;5011435;28;19920;-78
2023/02/02 08:16:32;;;;;;;;;;;6.10;95.10;;;;;;5007490;28;19909;-78
2023/02/02 08:18:58;;;;;;;;;;;6.10;95.50;;;;;;5016423;28;19908;-78
2023/02/02 08:21:24;;;;;;;;;;;6.10;96.50;;;;;;5006781;28;19905;-78
2023/02/02 08:23:50;;;;;;;;;;;6.00;97.50;;;;;;5024040;28;20437;-78
2023/02/02 08:26:21;;;;;;;;;;;6.20;97.00;;;;;;5009977;28;19920;-78
2023/02/02 08:28:47;;;;;;;;;;;6.20;96.10;;;;;;4988276;28;19913;-78
2023/02/02 08:31:14;;;;;;;;;;;6.30;96.20;;;;;;5011531;28;19909;-78
2023/02/02 08:33:40;;;;;;;;;;;6.30;95.50;;;;;;5016758;28;19945;-78
2023/02/02 08:36:13;;;;;;;;;;;6.40;95.40;;;;;;5008156;28;19976;-78
2023/02/02 08:38:38;;;;;;;;;;;6.40;95.20;;;;;;5006749;28;19916;-78
2023/02/02 08:41:05;;;;;;;;;;;6.40;95.90;;;;;;5007318;28;19909;-78
2023/02/02 08:43:31;;;;;;;;;;;6.50;95.70;;;;;;5009615;28;19956;-78
2023/02/02 08:45:56;;;;;;;;;;;6.50;95.70;;;;;;5017698;28;20706;-78
2023/02/02 08:48:22;;;;;;;;;;;6.60;95.80;;;;;;4992427;28;19909;-78
2023/02/02 08:50:52;;;;;;;;;;;6.70;96.10;;;;;;5010535;28;19909;-78
2023/02/02 08:53:18;;;;;;;;;;;6.80;96.40;;;;;;5017341;28;19909;-78
2023/02/02 08:55:43;;;;;;;;;;;6.80;96.50;;;;;;5011619;28;19963;-78
2023/02/02 08:58:09;;;;;;;;;;;6.90;96.80;;;;;;5004194;28;19971;-78
2023/02/02 09:00:34;;;;;;;;;;;7.00;96.70;;;;;;5011207;28;19929;-78
2023/02/02 09:03:00;;;;;;;;;;;7.10;96.90;;;;;;5003853;28;20393;-78
2023/02/02 09:05:25;;;;;;;;;;;7.30;96.70;;;;;;5014867;28;19924;-78
2023/02/02 09:07:51;;;;;;;;;;;7.50;97.20;;;;;;5010235;28;19913;-78
2023/02/02 09:10:16;;;;;;;;;;;7.60;96.60;;;;;;5012933;28;19955;-78
2023/02/02 09:12:42;;;;;;;;;;;7.60;96.40;;;;;;5009976;28;19980;-78
2023/02/02 09:15:08;;;;;;;;;;;8.00;95.70;;;;;;5016836;28;19913;-78
2023/02/02 09:17:34;;;;;;;;;;;8.60;94.90;;;;;;5009177;28;19912;-78
2023/02/02 09:19:59;;;;;;;;;;;9.20;95.10;;;;;;5012694;28;21352;-78
2023/02/02 09:22:25;;;;;;;;;;;9.50;93.70;;;;;;5018268;28;20013;-78
2023/02/02 09:24:50;;;;;;;;;;;9.10;92.60;;;;;;5007723;28;19921;-78
2023/02/02 09:27:16;;;;;;;;;;;9.20;91.80;;;;;;5004465;28;19921;-78
2023/02/02 09:29:41;;;;;;;;;;;9.60;90.90;;;;;;5004701;28;19913;-78
2023/02/02 09:32:07;;;;;;;;;;;9.80;91.50;;;;;;5014712;28;19916;-78
2023/02/02 09:34:33;;;;;;;;;;;10.50;91.40;;;;;;5008242;28;19963;-78
2023/02/02 09:36:59;;;;;;;;;;;10.40;90.50;;;;;;5005380;28;19917;-78
2023/02/02 09:39:24;;;;;;;;;;;10.30;90.10;;;;;;5005547;28;20741;-78
2023/02/02 09:42:06;;;;;;;;;;;10.00;91.20;;;;;;5003703;28;19909;-78
2023/02/02 09:44:56;;;;;;;;;;;9.90;90.20;;;;;;5013667;28;19916;-78
2023/02/02 09:47:32;;;;;;;;;;;9.90;90.30;;;;;;5012740;28;19945;-78
2023/02/02 09:50:00;;;;;;;;;;;9.80;90.90;;;;;;5006642;28;19909;-78
2023/02/02 09:52:29;;;;;;;;;;;10.00;90.70;;;;;;5015790;28;19917;-78
2023/02/02 09:55:21;;;;;;;;;;;9.50;90.50;;;;;;5019659;28;19909;-78
2023/02/02 09:58:07;;;;;;;;;;;9.80;90.10;;;;;;5005976;28;19916;-78
2023/02/02 10:00:33;;;;;;;;;;;10.40;88.50;;;;;;5004450;28;19931;-78
2023/02/02 10:03:19;;;;;;;;;;;10.80;86.80;;;;;;5008790;28;19920;-78
2023/02/02 10:06:04;;;;;;;;;;;10.50;87.00;;;;;;5008340;28;19913;-78
2023/02/02 10:08:35;;;;;;;;;;;10.40;88.20;;;;;;5013185;28;19916;-78
2023/02/02 10:11:03;;;;;;;;;;;9.90;85.20;;;;;;4993929;28;19949;-79
2023/02/02 10:13:32;;;;;;;;;;;10.00;83.00;;;;;;5014654;28;19908;-78
2023/02/02 10:16:06;;;;;;;;;;;9.80;83.30;;;;;;5012855;28;20435;-79
2023/02/02 10:18:40;;;;;;;;;;;9.70;82.50;;;;;;5009678;28;20477;-79
2023/02/02 10:21:09;;;;;;;;;;;9.20;82.30;;;;;;5003652;28;19921;-78
2023/02/02 10:23:36;;;;;;;;;;;8.90;83.50;;;;;;5016339;28;19913;-78
2023/02/02 10:26:04;;;;;;;;;;;9.20;82.60;;;;;;5003230;28;19992;-79
2023/02/02 10:28:53;;;;;;;;;;;9.60;82.90;;;;;;5003884;28;19913;-79
2023/02/02 10:31:42;;;;;;;;;;;9.60;82.10;;;;;;5004127;28;19909;-78
2023/02/02 10:34:26;;;;;;;;;;;9.50;83.80;;;;;;5015486;28;19917;-78
2023/02/02 10:36:59;;;;;;;;;;;9.10;82.50;;;;;;5002892;28;19905;-79
2023/02/02 10:39:27;;;;;;;;;;;9.50;81.50;;;;;;5015489;28;19909;-78
2023/02/02 10:42:02;;;;;;;;;;;9.20;82.20;;;;;;5003733;28;19988;-78
2023/02/02 10:44:34;;;;;;;;;;;9.10;81.20;;;;;;5014115;28;20016;-78
2023/02/02 10:47:02;;;;;;;;;;;9.30;81.30;;;;;;5026298;28;19913;-78
2023/02/02 10:49:36;;;;;;;;;;;9.10;81.80;;;;;;4995318;28;19909;-79
2023/02/02 10:52:05;;;;;;;;;;;9.00;83.60;;;;;;5013621;28;19909;-78
2023/02/02 10:54:39;;;;;;;;;;;9.20;81.90;;;;;;5020765;28;19914;-79
2023/02/02 10:57:06;;;;;;;;;;;9.50;82.50;;;;;;5022015;28;20384;-78
2023/02/02 10:59:34;;;;;;;;;;;10.10;81.00;;;;;;5025287;28;19925;-79
2023/02/02 11:02:00;;;;;;;;;;;9.90;80.10;;;;;;5015014;28;19913;-78
2023/02/02 11:07:19;;;;;;;;;;;9.40;80.80;;;;;;5012941;28;20019;-78
2023/02/02 11:09:45;;;;;;;;;;;9.50;81.80;;;;;;5018193;28;20351;-79
2023/02/02 11:12:29;;;;;;;;;;;9.40;80.80;;;;;;5018824;28;19940;-78
2023/02/02 11:14:54;;;;;;;;;;;9.50;81.90;;;;;;5013848;28;19909;-79
2023/02/02 11:17:21;;;;;;;;;;;9.60;83.70;;;;;;5025026;28;19916;-79
2023/02/02 11:19:48;;;;;;;;;;;9.70;82.50;;;;;;5009555;28;19921;-78
2023/02/02 11:22:29;;;;;;;;;;;9.50;81.70;;;;;;5013963;28;19913;-79
2023/02/02 11:24:56;;;;;;;;;;;9.70;81.40;;;;;;5010429;28;19994;-78
2023/02/02 11:27:23;;;;;;;;;;;9.80;81.20;;;;;;5007185;28;19909;-79
2023/02/02 11:29:50;;;;;;;;;;;9.50;83.10;;;;;;5006321;28;19909;-78
2023/02/02 11:32:25;;;;;;;;;;;9.90;82.20;;;;;;5020137;28;19909;-78
2023/02/02 11:35:11;;;;;;;;;;;10.10;81.30;;;;;;5010258;28;19913;-78
2023/02/02 11:37:37;;;;;;;;;;;10.50;82.40;;;;;;5009409;28;19920;-78
2023/02/02 11:40:22;;;;;;;;;;;10.20;79.60;;;;;;5016155;28;19909;-78
2023/02/02 11:42:48;;;;;;;;;;;10.30;82.00;;;;;;5009718;28;19913;-78
2023/02/02 11:45:16;;;;;;;;;;;10.10;81.30;;;;;;5018634;28;19913;-78
2023/02/02 11:47:42;;;;;;;;;;;9.90;82.40;;;;;;5012862;28;19909;-78
2023/02/02 11:50:16;;;;;;;;;;;9.60;83.20;;;;;;5009851;28;19986;-79
2023/02/02 11:52:44;;;;;;;;;;;9.30;82.20;;;;;;5010896;28;19910;-79
2023/02/02 11:55:15;;;;;;;;;;;9.20;84.80;;;;;;5014042;28;19931;-78
2023/02/02 11:58:00;;;;;;;;;;;9.20;84.20;;;;;;5012986;28;19924;-78
2023/02/02 12:00:27;;;;;;;;;;;9.20;84.60;;;;;;5006394;28;19921;-78
2023/02/02 12:02:53;;;;;;;;;;;9.20;85.50;;;;;;5015115;28;19924;-78
2023/02/02 12:05:19;;;;;;;;;;;9.30;88.00;;;;;;5014205;28;20009;-79
2023/02/02 12:07:46;;;;;;;;;;;9.30;85.60;;;;;;5011005;28;19922;-78
2023/02/02 12:10:31;;;;;;;;;;;9.30;86.20;;;;;;5010373;28;20415;-78
2023/02/02 12:13:08;;;;;;;;;;;9.40;87.10;;;;;;5017783;28;19913;-78
2023/02/02 12:15:36;;;;;;;;;;;9.30;84.20;;;;;;5012583;28;19909;-78
2023/02/02 12:18:17;;;;;;;;;;;9.10;83.50;;;;;;5014576;28;19959;-78
2023/02/02 12:20:49;;;;;;;;;;;8.90;84.00;;;;;;5009735;28;20336;-78
2023/02/02 12:23:25;;;;;;;;;;;9.00;85.20;;;;;;5018894;28;20024;-78
2023/02/02 12:25:51;;;;;;;;;;;9.00;83.90;;;;;;5015327;28;19919;-79
2023/02/02 12:28:22;;;;;;;;;;;9.20;86.20;;;;;;5009832;28;20003;-78
2023/02/02 12:31:02;;;;;;;;;;;9.20;83.60;;;;;;5017455;28;19955;-78
2023/02/02 12:33:33;;;;;;;;;;;9.10;83.40;;;;;;5017208;28;19913;-78
2023/02/02 12:36:17;;;;;;;;;;;9.00;82.20;;;;;;5006178;28;19945;-78
2023/02/02 12:39:01;;;;;;;;;;;9.10;84.30;;;;;;5007836;28;20336;-78
2023/02/02 12:41:33;;;;;;;;;;;9.10;84.00;;;;;;5007588;28;19913;-78
2023/02/02 12:44:01;;;;;;;;;;;9.10;83.20;;;;;;5016061;28;19921;-77
2023/02/02 12:46:27;;;;;;;;;;;9.00;83.30;;;;;;5014623;28;19971;-78
2023/02/02 12:49:12;;;;;;;;;;;9.00;82.50;;;;;;5012955;28;19913;-78
2023/02/02 12:51:48;;;;;;;;;;;8.80;83.00;;;;;;5009807;28;19983;-78
2023/02/02 12:54:20;;;;;;;;;;;9.00;84.00;;;;;;5014154;28;19909;-78
2023/02/02 12:56:46;;;;;;;;;;;9.10;82.50;;;;;;5015651;28;19954;-78
2023/02/02 12:59:22;;;;;;;;;;;9.10;85.90;;;;;;5016456;28;19909;-78
2023/02/02 13:02:06;;;;;;;;;;;9.00;86.60;;;;;;5006831;28;19948;-78
2023/02/02 13:04:43;;;;;;;;;;;8.90;83.50;;;;;;5013265;28;19968;-79
2023/02/02 13:07:09;;;;;;;;;;;8.80;84.50;;;;;;5015625;28;19909;-78
2023/02/02 13:09:37;;;;;;;;;;;8.90;87.00;;;;;;4998950;28;19982;-79
2023/02/02 13:12:07;;;;;;;;;;;8.90;86.10;;;;;;5018304;28;19909;-78
2023/02/02 13:14:35;;;;;;;;;;;9.10;87.10;;;;;;5013197;28;19910;-78
2023/02/02 13:17:07;;;;;;;;;;;9.00;84.40;;;;;;5010734;28;19909;-78
2023/02/02 13:19:40;;;;;;;;;;;8.80;83.30;;;;;;5013568;28;20379;-78
2023/02/02 13:22:09;;;;;;;;;;;8.70;85.30;;;;;;5019309;28;20040;-78
2023/02/02 13:24:37;;;;;;;;;;;8.70;85.00;;;;;;5009965;28;19920;-78
2023/02/02 13:27:04;;;;;;;;;;;8.90;84.70;;;;;;5003534;28;19914;-78
2023/02/02 13:29:36;;;;;;;;;;;8.90;85.30;;;;;;5004881;28;19909;-78
2023/02/02 13:32:10;;;;;;;;;;;9.10;82.40;;;;;;5015278;28;19979;-78
2023/02/02 13:34:41;;;;;;;;;;;9.10;86.00;;;;;;5009990;28;19943;-78
2023/02/02 13:37:12;;;;;;;;;;;9.30;86.50;;;;;;5013926;28;19967;-78
2023/02/02 13:39:41;;;;;;;;;;;9.30;86.20;;;;;;5015785;28;19916;-78
2023/02/02 13:42:15;;;;;;;;;;;9.30;83.80;;;;;;5003954;28;20109;-78
2023/02/02 13:44:45;;;;;;;;;;;9.20;83.20;;;;;;5015168;28;19917;-78
2023/02/02 13:47:17;;;;;;;;;;;9.10;82.40;;;;;;5013356;28;20374;-79
2023/02/02 13:49:46;;;;;;;;;;;9.10;83.00;;;;;;5005862;28;19910;-78
2023/02/02 13:52:11;;;;;;;;;;;9.10;84.40;;;;;;5007729;28;20012;-78
2023/02/02 13:54:40;;;;;;;;;;;9.40;84.40;;;;;;5011055;28;19911;-78
2023/02/02 13:57:26;;;;;;;;;;;9.50;84.20;;;;;;5013886;28;20424;-78
2023/02/02 13:59:52;;;;;;;;;;;9.70;84.80;;;;;;5009039;28;20388;-78
2023/02/02 14:02:36;;;;;;;;;;;9.80;83.00;;;;;;5015313;28;19990;-78
2023/02/02 14:05:04;;;;;;;;;;;9.80;81.40;;;;;;5009555;28;20459;-78
2023/02/02 14:07:40;;;;;;;;;;;9.60;82.40;;;;;;5010155;28;19951;-78
2023/02/02 14:10:06;;;;;;;;;;;9.40;82.30;;;;;;5016600;28;19983;-78
2023/02/02 14:12:34;;;;;;;;;;;9.30;83.30;;;;;;5014360;28;19915;-78
2023/02/02 14:15:00;;;;;;;;;;;9.40;82.90;;;;;;5013558;28;19909;-78
2023/02/02 14:17:25;;;;;;;;;;;9.60;83.00;;;;;;5014367;28;20343;-78
2023/02/02 14:19:55;;;;;;;;;;;9.70;82.40;;;;;;4988471;28;19944;-78
2023/02/02 14:22:39;;;;;;;;;;;9.70;83.10;;;;;;5017046;28;19913;-78
2023/02/02 14:25:23;;;;;;;;;;;9.90;83.80;;;;;;5020702;28;19920;-78
2023/02/02 14:28:03;;;;;;;;;;;9.60;82.90;;;;;;5021367;28;19944;-78
2023/02/02 14:30:31;;;;;;;;;;;9.30;84.10;;;;;;5010645;28;19909;-78
2023/02/02 14:33:15;;;;;;;;;;;9.00;84.30;;;;;;5016949;28;19921;-78
2023/02/02 14:35:44;;;;;;;;;;;8.80;85.40;;;;;;5014262;28;19976;-78
2023/02/02 14:38:13;;;;;;;;;;;8.60;86.40;;;;;;5020164;28;19909;-78
2023/02/02 14:40:39;;;;;;;;;;;8.40;87.30;;;;;;5022321;28;19909;-78
2023/02/02 14:46:12;;;;;;;;;;;8.30;86.70;;;;;;5013475;28;19937;-78
2023/02/02 14:48:39;;;;;;;;;;;8.30;87.50;;;;;;5011658;28;19955;-78
2023/02/02 14:51:31;;;;;;;;;;;8.40;86.60;;;;;;5017758;28;19964;-78